Terminal Aerodrome Forecast
Issued by NWS Upton, NY

Home | Current Version | Previous Version | Text Only | Print | Product List | Glossary On
Versions: 1 2 3 4 5 6 7 8 9 10 11 12 13 14 15 16 17 18 19 20 21 22 23 24 25 26 27 28 29 30 31 32 33 34 35 36
558
FTUS41 KOKX 262339
TAFLGA
TAF
KLGA 262339Z 2700/2724 30011KT P6SM SCT050 SCT090
     FM270600 34008KT P6SM FEW090
     FM271200 03007KT P6SM SCT050
     FM271500 05007KT P6SM BKN040
     FM272000 18007KT P6SM BKN040=

USA.gov is the U.S. government's official web portal to all federal, state and local government web resources and services.